Locke Mills, Pennsylvania
Current Conditions -  °F | °C
As of 7:53 PM on Thursday 27 Nov 2014 (Local Time) from KUNV Reporting Station
Overcast Overcast  
Wind Chill: -4°   Ceiling: 7500
Heat Index:   Visibility: 10mi
Dew Point: -3°   Wind: 9mph
Humidity: 80%   Direction: 290°WNW
Pressure: 30.08"   Gusts: NA
Location:  40.7567°N, 77.488°W
Report Text: KUNV 280053Z 29008KT 10SM OVC075 00/M03 A3008
Loading
Personal Weather Stations






























Interactive Weather Map New forecast layout! Learn more

10-Day Weather Forecast

Advertisements
Track Severe Weather on mobile